sensor_id;sensor_type;location;lat;lon;timestamp;P1;durP1;ratioP1;P2;durP2;ratioP2
51654;SDS011;37732;53.106;7.030;2023-03-14T00:01:57;21.27;;;7.53;;
51654;SDS011;37732;53.106;7.030;2023-03-14T00:04:23;19.70;;;7.80;;
51654;SDS011;37732;53.106;7.030;2023-03-14T00:06:48;18.23;;;8.25;;
51654;SDS011;37732;53.106;7.030;2023-03-14T00:09:14;21.15;;;7.47;;
51654;SDS011;37732;53.106;7.030;2023-03-14T00:11:41;19.90;;;8.20;;
51654;SDS011;37732;53.106;7.030;2023-03-14T00:14:07;30.70;;;8.05;;
51654;SDS011;37732;53.106;7.030;2023-03-14T00:16:32;18.10;;;6.97;;
51654;SDS011;37732;53.106;7.030;2023-03-14T00:18:58;21.67;;;7.25;;
51654;SDS011;37732;53.106;7.030;2023-03-14T00:21:24;26.80;;;7.13;;
51654;SDS011;37732;53.106;7.030;2023-03-14T00:23:50;19.67;;;7.55;;
51654;SDS011;37732;53.106;7.030;2023-03-14T00:26:17;20.42;;;7.90;;
51654;SDS011;37732;53.106;7.030;2023-03-14T00:28:44;17.75;;;7.55;;
51654;SDS011;37732;53.106;7.030;2023-03-14T00:31:11;20.70;;;7.22;;
51654;SDS011;37732;53.106;7.030;2023-03-14T00:33:39;17.30;;;7.03;;
51654;SDS011;37732;53.106;7.030;2023-03-14T00:36:07;20.75;;;7.10;;
51654;SDS011;37732;53.106;7.030;2023-03-14T00:38:35;19.73;;;7.63;;
51654;SDS011;37732;53.106;7.030;2023-03-14T00:41:05;19.95;;;7.45;;
51654;SDS011;37732;53.106;7.030;2023-03-14T00:43:33;21.83;;;7.32;;
51654;SDS011;37732;53.106;7.030;2023-03-14T00:45:58;20.70;;;7.00;;
51654;SDS011;37732;53.106;7.030;2023-03-14T00:48:24;23.08;;;6.90;;
51654;SDS011;37732;53.106;7.030;2023-03-14T00:50:50;16.77;;;5.85;;
51654;SDS011;37732;53.106;7.030;2023-03-14T00:53:16;17.48;;;6.57;;
51654;SDS011;37732;53.106;7.030;2023-03-14T00:55:42;21.55;;;7.38;;
51654;SDS011;37732;53.106;7.030;2023-03-14T00:58:09;17.38;;;6.47;;
51654;SDS011;37732;53.106;7.030;2023-03-14T01:00:36;20.02;;;7.03;;
51654;SDS011;37732;53.106;7.030;2023-03-14T01:03:01;19.27;;;6.47;;
51654;SDS011;37732;53.106;7.030;2023-03-14T01:05:28;22.55;;;8.07;;
51654;SDS011;37732;53.106;7.030;2023-03-14T01:07:54;21.50;;;7.15;;
51654;SDS011;37732;53.106;7.030;2023-03-14T01:10:20;17.95;;;6.72;;
51654;SDS011;37732;53.106;7.030;2023-03-14T01:12:45;13.70;;;6.57;;
51654;SDS011;37732;53.106;7.030;2023-03-14T01:15:11;17.95;;;7.28;;
51654;SDS011;37732;53.106;7.030;2023-03-14T01:17:37;19.20;;;6.63;;
51654;SDS011;37732;53.106;7.030;2023-03-14T01:20:04;24.00;;;7.28;;
51654;SDS011;37732;53.106;7.030;2023-03-14T01:22:34;17.02;;;7.00;;
51654;SDS011;37732;53.106;7.030;2023-03-14T01:25:00;13.05;;;5.75;;
51654;SDS011;37732;53.106;7.030;2023-03-14T01:27:26;12.30;;;6.07;;
51654;SDS011;37732;53.106;7.030;2023-03-14T01:29:52;13.10;;;6.13;;
51654;SDS011;37732;53.106;7.030;2023-03-14T01:32:17;13.02;;;6.57;;
51654;SDS011;37732;53.106;7.030;2023-03-14T01:34:43;16.13;;;6.10;;
51654;SDS011;37732;53.106;7.030;2023-03-14T01:37:08;12.93;;;6.20;;
51654;SDS011;37732;53.106;7.030;2023-03-14T01:39:36;12.38;;;6.60;;
51654;SDS011;37732;53.106;7.030;2023-03-14T01:42:02;13.63;;;6.57;;
51654;SDS011;37732;53.106;7.030;2023-03-14T01:44:28;13.60;;;7.15;;
51654;SDS011;37732;53.106;7.030;2023-03-14T01:47:11;13.68;;;6.65;;
51654;SDS011;37732;53.106;7.030;2023-03-14T01:49:36;17.67;;;7.07;;
51654;SDS011;37732;53.106;7.030;2023-03-14T01:52:06;16.73;;;7.53;;
51654;SDS011;37732;53.106;7.030;2023-03-14T01:55:09;14.55;;;6.43;;
51654;SDS011;37732;53.106;7.030;2023-03-14T01:57:43;18.25;;;6.43;;
51654;SDS011;37732;53.106;7.030;2023-03-14T02:09:59;16.48;;;6.07;;
51654;SDS011;37732;53.106;7.030;2023-03-14T02:13:19;16.65;;;6.80;;
51654;SDS011;37732;53.106;7.030;2023-03-14T02:53:38;14.90;;;5.47;;
51654;SDS011;37732;53.106;7.030;2023-03-14T02:56:38;11.52;;;5.00;;
51654;SDS011;37732;53.106;7.030;2023-03-14T03:05:35;13.52;;;5.63;;
51654;SDS011;37732;53.106;7.030;2023-03-14T03:25:19;14.05;;;6.40;;
51654;SDS011;37732;53.106;7.030;2023-03-14T03:38:28;13.75;;;5.47;;
51654;SDS011;37732;53.106;7.030;2023-03-14T03:41:41;14.75;;;5.57;;
51654;SDS011;37732;53.106;7.030;2023-03-14T04:04:47;8.90;;;3.72;;
51654;SDS011;37732;53.106;7.030;2023-03-14T04:08:01;9.60;;;4.97;;
51654;SDS011;37732;53.106;7.030;2023-03-14T04:14:33;12.95;;;5.70;;
51654;SDS011;37732;53.106;7.030;2023-03-14T04:28:26;12.25;;;5.88;;
51654;SDS011;37732;53.106;7.030;2023-03-14T04:34:30;15.88;;;6.75;;
51654;SDS011;37732;53.106;7.030;2023-03-14T04:36:56;15.00;;;6.40;;
51654;SDS011;37732;53.106;7.030;2023-03-14T04:39:22;12.98;;;5.72;;
51654;SDS011;37732;53.106;7.030;2023-03-14T04:41:47;12.80;;;5.78;;
51654;SDS011;37732;53.106;7.030;2023-03-14T04:44:13;11.38;;;5.88;;
51654;SDS011;37732;53.106;7.030;2023-03-14T04:46:38;14.90;;;6.28;;
51654;SDS011;37732;53.106;7.030;2023-03-14T04:49:04;12.60;;;6.43;;
51654;SDS011;37732;53.106;7.030;2023-03-14T04:51:30;13.25;;;6.40;;
51654;SDS011;37732;53.106;7.030;2023-03-14T04:53:55;12.23;;;5.20;;
51654;SDS011;37732;53.106;7.030;2023-03-14T04:56:21;17.83;;;6.47;;
51654;SDS011;37732;53.106;7.030;2023-03-14T04:58:47;10.93;;;6.03;;
51654;SDS011;37732;53.106;7.030;2023-03-14T05:01:12;10.73;;;5.88;;
51654;SDS011;37732;53.106;7.030;2023-03-14T05:03:38;11.30;;;4.57;;
51654;SDS011;37732;53.106;7.030;2023-03-14T05:06:04;14.35;;;5.90;;
51654;SDS011;37732;53.106;7.030;2023-03-14T05:08:30;12.07;;;5.55;;
51654;SDS011;37732;53.106;7.030;2023-03-14T05:10:56;11.02;;;4.70;;
51654;SDS011;37732;53.106;7.030;2023-03-14T05:13:23;10.32;;;5.43;;
51654;SDS011;37732;53.106;7.030;2023-03-14T05:15:49;10.15;;;4.25;;
51654;SDS011;37732;53.106;7.030;2023-03-14T05:18:18;10.20;;;4.45;;
51654;SDS011;37732;53.106;7.030;2023-03-14T05:20:44;11.82;;;5.03;;
51654;SDS011;37732;53.106;7.030;2023-03-14T05:23:10;10.70;;;4.82;;
51654;SDS011;37732;53.106;7.030;2023-03-14T05:25:35;11.63;;;4.75;;
51654;SDS011;37732;53.106;7.030;2023-03-14T05:28:01;13.50;;;5.50;;
51654;SDS011;37732;53.106;7.030;2023-03-14T05:30:27;12.25;;;6.55;;
51654;SDS011;37732;53.106;7.030;2023-03-14T05:32:53;11.10;;;5.70;;
51654;SDS011;37732;53.106;7.030;2023-03-14T05:35:19;10.95;;;6.00;;
51654;SDS011;37732;53.106;7.030;2023-03-14T05:37:45;11.20;;;5.55;;
51654;SDS011;37732;53.106;7.030;2023-03-14T05:40:10;15.55;;;7.28;;
51654;SDS011;37732;53.106;7.030;2023-03-14T05:42:36;12.02;;;5.95;;
51654;SDS011;37732;53.106;7.030;2023-03-14T05:45:02;12.70;;;6.25;;
51654;SDS011;37732;53.106;7.030;2023-03-14T05:47:28;16.70;;;6.72;;
51654;SDS011;37732;53.106;7.030;2023-03-14T05:49:54;13.50;;;6.68;;
51654;SDS011;37732;53.106;7.030;2023-03-14T05:52:19;10.77;;;6.43;;
51654;SDS011;37732;53.106;7.030;2023-03-14T05:54:45;14.85;;;6.90;;
51654;SDS011;37732;53.106;7.030;2023-03-14T05:57:10;15.20;;;7.28;;
51654;SDS011;37732;53.106;7.030;2023-03-14T05:59:36;9.50;;;6.53;;
51654;SDS011;37732;53.106;7.030;2023-03-14T06:02:02;12.82;;;7.25;;
51654;SDS011;37732;53.106;7.030;2023-03-14T06:04:27;12.10;;;6.72;;
51654;SDS011;37732;53.106;7.030;2023-03-14T06:06:53;17.10;;;7.07;;
51654;SDS011;37732;53.106;7.030;2023-03-14T06:09:19;13.30;;;7.13;;
51654;SDS011;37732;53.106;7.030;2023-03-14T06:11:47;12.10;;;6.93;;
51654;SDS011;37732;53.106;7.030;2023-03-14T06:14:13;11.88;;;7.38;;
51654;SDS011;37732;53.106;7.030;2023-03-14T06:16:38;13.45;;;7.38;;
51654;SDS011;37732;53.106;7.030;2023-03-14T06:19:04;12.65;;;6.90;;
51654;SDS011;37732;53.106;7.030;2023-03-14T06:21:29;14.23;;;7.95;;
51654;SDS011;37732;53.106;7.030;2023-03-14T06:23:55;14.77;;;7.78;;
51654;SDS011;37732;53.106;7.030;2023-03-14T06:26:21;16.15;;;6.65;;
51654;SDS011;37732;53.106;7.030;2023-03-14T06:28:48;14.48;;;6.43;;
51654;SDS011;37732;53.106;7.030;2023-03-14T06:31:14;10.00;;;6.18;;
51654;SDS011;37732;53.106;7.030;2023-03-14T06:33:39;11.88;;;6.28;;
51654;SDS011;37732;53.106;7.030;2023-03-14T06:36:05;11.55;;;5.70;;
51654;SDS011;37732;53.106;7.030;2023-03-14T06:38:31;14.20;;;5.95;;
51654;SDS011;37732;53.106;7.030;2023-03-14T06:41:02;13.25;;;5.32;;
51654;SDS011;37732;53.106;7.030;2023-03-14T06:43:29;8.50;;;5.07;;
51654;SDS011;37732;53.106;7.030;2023-03-14T06:45:55;8.45;;;4.60;;
51654;SDS011;37732;53.106;7.030;2023-03-14T06:48:20;8.90;;;4.15;;
51654;SDS011;37732;53.106;7.030;2023-03-14T06:50:47;6.53;;;3.97;;
51654;SDS011;37732;53.106;7.030;2023-03-14T06:53:13;6.85;;;3.58;;
51654;SDS011;37732;53.106;7.030;2023-03-14T06:55:39;5.80;;;3.50;;
51654;SDS011;37732;53.106;7.030;2023-03-14T06:58:04;6.53;;;3.40;;
51654;SDS011;37732;53.106;7.030;2023-03-14T07:00:33;7.18;;;3.63;;
51654;SDS011;37732;53.106;7.030;2023-03-14T07:02:59;7.65;;;3.63;;
51654;SDS011;37732;53.106;7.030;2023-03-14T07:05:24;10.90;;;3.65;;
51654;SDS011;37732;53.106;7.030;2023-03-14T07:07:50;5.25;;;3.35;;
51654;SDS011;37732;53.106;7.030;2023-03-14T07:10:16;7.50;;;3.90;;
51654;SDS011;37732;53.106;7.030;2023-03-14T07:12:41;7.43;;;3.63;;
51654;SDS011;37732;53.106;7.030;2023-03-14T07:15:07;8.02;;;3.75;;
51654;SDS011;37732;53.106;7.030;2023-03-14T07:17:33;8.18;;;2.85;;
51654;SDS011;37732;53.106;7.030;2023-03-14T07:19:59;5.13;;;2.45;;
51654;SDS011;37732;53.106;7.030;2023-03-14T07:22:25;5.47;;;1.90;;
51654;SDS011;37732;53.106;7.030;2023-03-14T07:24:51;5.97;;;1.70;;
51654;SDS011;37732;53.106;7.030;2023-03-14T07:27:17;7.68;;;2.08;;
51654;SDS011;37732;53.106;7.030;2023-03-14T07:29:42;6.18;;;2.10;;
51654;SDS011;37732;53.106;7.030;2023-03-14T07:32:08;6.53;;;2.05;;
51654;SDS011;37732;53.106;7.030;2023-03-14T07:34:34;6.57;;;2.28;;
51654;SDS011;37732;53.106;7.030;2023-03-14T07:37:00;11.10;;;3.00;;
51654;SDS011;37732;53.106;7.030;2023-03-14T07:39:26;8.88;;;2.42;;
51654;SDS011;37732;53.106;7.030;2023-03-14T07:41:51;8.00;;;2.97;;
51654;SDS011;37732;53.106;7.030;2023-03-14T07:44:17;6.75;;;2.75;;
51654;SDS011;37732;53.106;7.030;2023-03-14T07:46:42;6.55;;;2.22;;
51654;SDS011;37732;53.106;7.030;2023-03-14T07:49:08;7.07;;;2.10;;
51654;SDS011;37732;53.106;7.030;2023-03-14T07:51:34;12.88;;;2.80;;
51654;SDS011;37732;53.106;7.030;2023-03-14T07:53:59;8.13;;;2.70;;
51654;SDS011;37732;53.106;7.030;2023-03-14T07:56:26;6.57;;;2.13;;
51654;SDS011;37732;53.106;7.030;2023-03-14T07:58:51;7.43;;;2.13;;
51654;SDS011;37732;53.106;7.030;2023-03-14T08:01:17;5.28;;;2.40;;
51654;SDS011;37732;53.106;7.030;2023-03-14T08:03:43;12.52;;;3.38;;
51654;SDS011;37732;53.106;7.030;2023-03-14T08:06:08;8.68;;;2.53;;
51654;SDS011;37732;53.106;7.030;2023-03-14T08:08:34;5.40;;;2.35;;
51654;SDS011;37732;53.106;7.030;2023-03-14T08:11:03;5.47;;;2.13;;
51654;SDS011;37732;53.106;7.030;2023-03-14T08:13:30;4.35;;;1.70;;
51654;SDS011;37732;53.106;7.030;2023-03-14T08:15:56;4.80;;;2.10;;
51654;SDS011;37732;53.106;7.030;2023-03-14T08:18:22;5.15;;;2.45;;
51654;SDS011;37732;53.106;7.030;2023-03-14T08:20:47;9.45;;;2.83;;
51654;SDS011;37732;53.106;7.030;2023-03-14T08:23:13;7.55;;;2.72;;
51654;SDS011;37732;53.106;7.030;2023-03-14T08:25:38;6.03;;;3.17;;
51654;SDS011;37732;53.106;7.030;2023-03-14T08:28:04;6.20;;;2.95;;
51654;SDS011;37732;53.106;7.030;2023-03-14T08:30:30;8.30;;;3.58;;
51654;SDS011;37732;53.106;7.030;2023-03-14T08:32:56;4.70;;;2.25;;
51654;SDS011;37732;53.106;7.030;2023-03-14T08:35:23;4.30;;;1.85;;
51654;SDS011;37732;53.106;7.030;2023-03-14T08:37:50;6.38;;;1.90;;
51654;SDS011;37732;53.106;7.030;2023-03-14T08:40:17;5.70;;;2.72;;
51654;SDS011;37732;53.106;7.030;2023-03-14T08:42:43;7.97;;;4.45;;
51654;SDS011;37732;53.106;7.030;2023-03-14T08:45:11;4.40;;;2.47;;
51654;SDS011;37732;53.106;7.030;2023-03-14T08:47:38;6.72;;;2.00;;
51654;SDS011;37732;53.106;7.030;2023-03-14T08:50:04;4.10;;;1.65;;
51654;SDS011;37732;53.106;7.030;2023-03-14T08:52:31;5.78;;;1.88;;
51654;SDS011;37732;53.106;7.030;2023-03-14T08:54:57;5.28;;;2.28;;
51654;SDS011;37732;53.106;7.030;2023-03-14T08:57:23;7.35;;;2.00;;
51654;SDS011;37732;53.106;7.030;2023-03-14T08:59:53;3.88;;;1.98;;
51654;SDS011;37732;53.106;7.030;2023-03-14T09:02:20;6.80;;;2.38;;
51654;SDS011;37732;53.106;7.030;2023-03-14T09:04:46;8.00;;;2.03;;
51654;SDS011;37732;53.106;7.030;2023-03-14T09:07:12;8.48;;;2.20;;
51654;SDS011;37732;53.106;7.030;2023-03-14T09:09:37;8.60;;;3.13;;
51654;SDS011;37732;53.106;7.030;2023-03-14T09:12:03;9.23;;;3.20;;
51654;SDS011;37732;53.106;7.030;2023-03-14T09:14:30;7.20;;;2.42;;
51654;SDS011;37732;53.106;7.030;2023-03-14T09:16:56;12.27;;;4.65;;
51654;SDS011;37732;53.106;7.030;2023-03-14T09:19:22;8.52;;;3.38;;
51654;SDS011;37732;53.106;7.030;2023-03-14T09:21:48;13.20;;;4.07;;
51654;SDS011;37732;53.106;7.030;2023-03-14T09:24:15;11.07;;;3.05;;
51654;SDS011;37732;53.106;7.030;2023-03-14T09:26:41;17.10;;;4.97;;
51654;SDS011;37732;53.106;7.030;2023-03-14T09:29:06;22.17;;;8.23;;
51654;SDS011;37732;53.106;7.030;2023-03-14T09:31:32;28.48;;;10.82;;
51654;SDS011;37732;53.106;7.030;2023-03-14T09:33:58;20.90;;;8.32;;
51654;SDS011;37732;53.106;7.030;2023-03-14T09:36:24;15.57;;;5.38;;
51654;SDS011;37732;53.106;7.030;2023-03-14T09:38:50;9.75;;;4.30;;
51654;SDS011;37732;53.106;7.030;2023-03-14T09:41:17;12.43;;;3.90;;
51654;SDS011;37732;53.106;7.030;2023-03-14T09:43:49;15.80;;;4.10;;
51654;SDS011;37732;53.106;7.030;2023-03-14T09:46:25;11.48;;;5.65;;
51654;SDS011;37732;53.106;7.030;2023-03-14T09:48:52;14.18;;;4.80;;
51654;SDS011;37732;53.106;7.030;2023-03-14T09:51:18;12.98;;;4.38;;
51654;SDS011;37732;53.106;7.030;2023-03-14T09:53:48;14.65;;;4.65;;
51654;SDS011;37732;53.106;7.030;2023-03-14T09:58:53;12.43;;;4.50;;
51654;SDS011;37732;53.106;7.030;2023-03-14T10:01:26;20.17;;;5.28;;
51654;SDS011;37732;53.106;7.030;2023-03-14T10:03:54;16.33;;;5.15;;
51654;SDS011;37732;53.106;7.030;2023-03-14T10:06:26;23.27;;;6.38;;
51654;SDS011;37732;53.106;7.030;2023-03-14T10:08:54;13.20;;;4.63;;
51654;SDS011;37732;53.106;7.030;2023-03-14T10:11:22;21.48;;;6.28;;
51654;SDS011;37732;53.106;7.030;2023-03-14T10:16:32;11.27;;;4.30;;
51654;SDS011;37732;53.106;7.030;2023-03-14T10:19:04;11.05;;;3.83;;
51654;SDS011;37732;53.106;7.030;2023-03-14T10:21:35;16.38;;;5.40;;
51654;SDS011;37732;53.106;7.030;2023-03-14T10:24:10;12.77;;;4.78;;
51654;SDS011;37732;53.106;7.030;2023-03-14T10:26:53;15.77;;;4.80;;
51654;SDS011;37732;53.106;7.030;2023-03-14T10:29:30;20.42;;;5.57;;
51654;SDS011;37732;53.106;7.030;2023-03-14T10:32:04;17.42;;;5.03;;
51654;SDS011;37732;53.106;7.030;2023-03-14T10:34:36;17.27;;;5.47;;
51654;SDS011;37732;53.106;7.030;2023-03-14T10:37:07;19.17;;;5.63;;
51654;SDS011;37732;53.106;7.030;2023-03-14T10:39:46;19.15;;;6.13;;
51654;SDS011;37732;53.106;7.030;2023-03-14T10:44:55;20.73;;;5.50;;
51654;SDS011;37732;53.106;7.030;2023-03-14T10:47:24;20.90;;;5.80;;
51654;SDS011;37732;53.106;7.030;2023-03-14T10:49:53;17.80;;;5.90;;
51654;SDS011;37732;53.106;7.030;2023-03-14T10:52:23;17.05;;;5.32;;
51654;SDS011;37732;53.106;7.030;2023-03-14T10:55:10;20.13;;;5.75;;
51654;SDS011;37732;53.106;7.030;2023-03-14T10:57:40;13.38;;;4.47;;
51654;SDS011;37732;53.106;7.030;2023-03-14T11:00:26;11.45;;;4.53;;
51654;SDS011;37732;53.106;7.030;2023-03-14T11:02:56;13.90;;;4.75;;
51654;SDS011;37732;53.106;7.030;2023-03-14T11:05:38;20.77;;;4.40;;
51654;SDS011;37732;53.106;7.030;2023-03-14T11:10:44;17.48;;;4.10;;
51654;SDS011;37732;53.106;7.030;2023-03-14T11:13:17;15.13;;;4.00;;
51654;SDS011;37732;53.106;7.030;2023-03-14T11:16:09;19.48;;;4.20;;
51654;SDS011;37732;53.106;7.030;2023-03-14T11:24:14;14.80;;;3.85;;
51654;SDS011;37732;53.106;7.030;2023-03-14T11:29:41;19.98;;;7.00;;
51654;SDS011;37732;53.106;7.030;2023-03-14T11:35:30;16.95;;;6.10;;
51654;SDS011;37732;53.106;7.030;2023-03-14T11:40:39;11.43;;;4.30;;
51654;SDS011;37732;53.106;7.030;2023-03-14T11:43:15;11.35;;;4.25;;
51654;SDS011;37732;53.106;7.030;2023-03-14T11:45:45;15.05;;;6.00;;
51654;SDS011;37732;53.106;7.030;2023-03-14T11:51:02;15.10;;;5.95;;
51654;SDS011;37732;53.106;7.030;2023-03-14T11:53:47;12.15;;;4.72;;
51654;SDS011;37732;53.106;7.030;2023-03-14T11:56:32;11.93;;;4.45;;
51654;SDS011;37732;53.106;7.030;2023-03-14T11:59:04;9.85;;;3.83;;
51654;SDS011;37732;53.106;7.030;2023-03-14T12:07:05;8.32;;;2.90;;
51654;SDS011;37732;53.106;7.030;2023-03-14T12:09:41;13.35;;;3.28;;
51654;SDS011;37732;53.106;7.030;2023-03-14T12:12:10;9.35;;;3.38;;
51654;SDS011;37732;53.106;7.030;2023-03-14T12:14:45;9.75;;;3.33;;
51654;SDS011;37732;53.106;7.030;2023-03-14T12:17:21;6.82;;;2.30;;
51654;SDS011;37732;53.106;7.030;2023-03-14T12:19:59;8.50;;;2.78;;
51654;SDS011;37732;53.106;7.030;2023-03-14T12:22:31;8.70;;;2.53;;
51654;SDS011;37732;53.106;7.030;2023-03-14T12:25:02;5.22;;;2.30;;
51654;SDS011;37732;53.106;7.030;2023-03-14T12:35:45;11.40;;;2.45;;
51654;SDS011;37732;53.106;7.030;2023-03-14T12:41:26;9.77;;;2.72;;
51654;SDS011;37732;53.106;7.030;2023-03-14T12:49:53;12.70;;;3.08;;
51654;SDS011;37732;53.106;7.030;2023-03-14T12:52:29;18.10;;;5.15;;
51654;SDS011;37732;53.106;7.030;2023-03-14T12:55:24;11.00;;;4.45;;
51654;SDS011;37732;53.106;7.030;2023-03-14T12:57:59;13.60;;;4.13;;
51654;SDS011;37732;53.106;7.030;2023-03-14T13:00:42;13.75;;;3.97;;
51654;SDS011;37732;53.106;7.030;2023-03-14T13:05:54;12.43;;;3.28;;
51654;SDS011;37732;53.106;7.030;2023-03-14T13:08:36;6.73;;;2.60;;
51654;SDS011;37732;53.106;7.030;2023-03-14T13:13:34;13.68;;;3.75;;
51654;SDS011;37732;53.106;7.030;2023-03-14T13:16:02;8.90;;;3.08;;
51654;SDS011;37732;53.106;7.030;2023-03-14T13:18:37;12.32;;;3.53;;
51654;SDS011;37732;53.106;7.030;2023-03-14T13:21:07;7.82;;;2.78;;
51654;SDS011;37732;53.106;7.030;2023-03-14T13:26:22;9.93;;;2.47;;
51654;SDS011;37732;53.106;7.030;2023-03-14T13:28:50;8.27;;;2.80;;
51654;SDS011;37732;53.106;7.030;2023-03-14T13:31:21;9.35;;;2.67;;
51654;SDS011;37732;53.106;7.030;2023-03-14T13:34:01;12.45;;;3.20;;
51654;SDS011;37732;53.106;7.030;2023-03-14T13:36:29;8.18;;;2.20;;
51654;SDS011;37732;53.106;7.030;2023-03-14T13:38:56;8.38;;;2.40;;
51654;SDS011;37732;53.106;7.030;2023-03-14T13:41:26;8.90;;;2.38;;
51654;SDS011;37732;53.106;7.030;2023-03-14T13:43:55;7.78;;;2.47;;
51654;SDS011;37732;53.106;7.030;2023-03-14T13:46:25;9.05;;;2.33;;
51654;SDS011;37732;53.106;7.030;2023-03-14T13:51:20;7.88;;;2.65;;
51654;SDS011;37732;53.106;7.030;2023-03-14T13:53:50;6.65;;;2.40;;
51654;SDS011;37732;53.106;7.030;2023-03-14T13:56:18;8.15;;;2.35;;
51654;SDS011;37732;53.106;7.030;2023-03-14T13:58:45;13.05;;;3.20;;
51654;SDS011;37732;53.106;7.030;2023-03-14T14:01:24;13.55;;;3.58;;
51654;SDS011;37732;53.106;7.030;2023-03-14T14:03:56;8.07;;;3.25;;
51654;SDS011;37732;53.106;7.030;2023-03-14T14:08:55;5.82;;;2.00;;
51654;SDS011;37732;53.106;7.030;2023-03-14T14:12:10;6.22;;;2.22;;
51654;SDS011;37732;53.106;7.030;2023-03-14T14:14:21;8.73;;;2.22;;
51654;SDS011;37732;53.106;7.030;2023-03-14T14:16:52;4.40;;;1.80;;
51654;SDS011;37732;53.106;7.030;2023-03-14T14:19:18;9.10;;;2.70;;
51654;SDS011;37732;53.106;7.030;2023-03-14T14:21:47;9.75;;;2.55;;
51654;SDS011;37732;53.106;7.030;2023-03-14T14:24:13;9.32;;;2.40;;
51654;SDS011;37732;53.106;7.030;2023-03-14T14:26:41;8.38;;;2.72;;
51654;SDS011;37732;53.106;7.030;2023-03-14T14:29:25;10.90;;;3.08;;
51654;SDS011;37732;53.106;7.030;2023-03-14T14:32:00;12.38;;;3.10;;
51654;SDS011;37732;53.106;7.030;2023-03-14T14:34:27;8.88;;;3.05;;
51654;SDS011;37732;53.106;7.030;2023-03-14T14:36:52;12.50;;;2.83;;
51654;SDS011;37732;53.106;7.030;2023-03-14T14:39:36;12.45;;;3.28;;
51654;SDS011;37732;53.106;7.030;2023-03-14T14:42:04;13.38;;;2.80;;
51654;SDS011;37732;53.106;7.030;2023-03-14T14:47:03;9.10;;;3.13;;
51654;SDS011;37732;53.106;7.030;2023-03-14T14:49:30;7.80;;;2.63;;
51654;SDS011;37732;53.106;7.030;2023-03-14T14:52:10;12.95;;;3.03;;
51654;SDS011;37732;53.106;7.030;2023-03-14T14:54:47;11.55;;;3.33;;
51654;SDS011;37732;53.106;7.030;2023-03-14T14:57:22;7.97;;;2.70;;
51654;SDS011;37732;53.106;7.030;2023-03-14T14:59:54;7.72;;;2.47;;
51654;SDS011;37732;53.106;7.030;2023-03-14T15:02:27;7.70;;;2.10;;
51654;SDS011;37732;53.106;7.030;2023-03-14T15:04:56;11.07;;;2.70;;
51654;SDS011;37732;53.106;7.030;2023-03-14T15:07:21;11.68;;;2.38;;
51654;SDS011;37732;53.106;7.030;2023-03-14T15:09:47;9.25;;;2.50;;
51654;SDS011;37732;53.106;7.030;2023-03-14T15:12:13;7.38;;;2.65;;
51654;SDS011;37732;53.106;7.030;2023-03-14T15:14:38;5.43;;;2.53;;
51654;SDS011;37732;53.106;7.030;2023-03-14T15:17:05;8.73;;;2.80;;
51654;SDS011;37732;53.106;7.030;2023-03-14T15:19:34;9.52;;;3.55;;
51654;SDS011;37732;53.106;7.030;2023-03-14T15:22:00;8.30;;;2.65;;
51654;SDS011;37732;53.106;7.030;2023-03-14T15:24:26;15.18;;;3.85;;
51654;SDS011;37732;53.106;7.030;2023-03-14T15:26:51;11.48;;;3.47;;
51654;SDS011;37732;53.106;7.030;2023-03-14T15:29:17;8.30;;;2.55;;
51654;SDS011;37732;53.106;7.030;2023-03-14T15:31:43;12.95;;;3.55;;
51654;SDS011;37732;53.106;7.030;2023-03-14T15:34:09;11.13;;;3.53;;
51654;SDS011;37732;53.106;7.030;2023-03-14T15:36:35;9.07;;;2.58;;
51654;SDS011;37732;53.106;7.030;2023-03-14T15:39:02;13.00;;;3.25;;
51654;SDS011;37732;53.106;7.030;2023-03-14T15:41:30;9.48;;;2.97;;
51654;SDS011;37732;53.106;7.030;2023-03-14T15:43:56;11.98;;;2.88;;
51654;SDS011;37732;53.106;7.030;2023-03-14T15:46:22;7.22;;;2.70;;
51654;SDS011;37732;53.106;7.030;2023-03-14T15:48:49;9.27;;;2.17;;
51654;SDS011;37732;53.106;7.030;2023-03-14T15:51:15;12.35;;;2.88;;
51654;SDS011;37732;53.106;7.030;2023-03-14T15:53:42;7.75;;;2.58;;
51654;SDS011;37732;53.106;7.030;2023-03-14T15:56:16;10.57;;;2.20;;
51654;SDS011;37732;53.106;7.030;2023-03-14T15:58:43;8.85;;;2.30;;
51654;SDS011;37732;53.106;7.030;2023-03-14T16:01:11;6.05;;;1.85;;
51654;SDS011;37732;53.106;7.030;2023-03-14T16:03:38;7.63;;;2.10;;
51654;SDS011;37732;53.106;7.030;2023-03-14T16:06:04;6.35;;;2.25;;
51654;SDS011;37732;53.106;7.030;2023-03-14T16:08:30;8.98;;;2.40;;
51654;SDS011;37732;53.106;7.030;2023-03-14T16:10:57;5.03;;;2.15;;
51654;SDS011;37732;53.106;7.030;2023-03-14T16:13:23;8.70;;;2.70;;
51654;SDS011;37732;53.106;7.030;2023-03-14T16:16:07;9.25;;;2.40;;
51654;SDS011;37732;53.106;7.030;2023-03-14T16:18:35;9.95;;;2.20;;
51654;SDS011;37732;53.106;7.030;2023-03-14T16:21:03;8.50;;;2.50;;
51654;SDS011;37732;53.106;7.030;2023-03-14T16:23:33;9.80;;;2.80;;
51654;SDS011;37732;53.106;7.030;2023-03-14T16:26:02;7.82;;;2.55;;
51654;SDS011;37732;53.106;7.030;2023-03-14T16:28:29;11.60;;;2.50;;
51654;SDS011;37732;53.106;7.030;2023-03-14T16:30:59;8.35;;;2.33;;
51654;SDS011;37732;53.106;7.030;2023-03-14T16:33:29;9.98;;;2.65;;
51654;SDS011;37732;53.106;7.030;2023-03-14T16:35:56;7.97;;;2.15;;
51654;SDS011;37732;53.106;7.030;2023-03-14T16:38:24;12.13;;;3.20;;
51654;SDS011;37732;53.106;7.030;2023-03-14T16:40:57;9.48;;;2.53;;
51654;SDS011;37732;53.106;7.030;2023-03-14T16:43:27;7.28;;;2.10;;
51654;SDS011;37732;53.106;7.030;2023-03-14T16:45:53;8.13;;;2.50;;
51654;SDS011;37732;53.106;7.030;2023-03-14T16:48:21;6.03;;;2.13;;
51654;SDS011;37732;53.106;7.030;2023-03-14T16:50:48;6.97;;;2.30;;
51654;SDS011;37732;53.106;7.030;2023-03-14T16:53:15;8.50;;;2.22;;
51654;SDS011;37732;53.106;7.030;2023-03-14T16:55:41;6.85;;;1.90;;
51654;SDS011;37732;53.106;7.030;2023-03-14T16:58:07;9.68;;;3.03;;
51654;SDS011;37732;53.106;7.030;2023-03-14T17:00:34;7.10;;;2.13;;
51654;SDS011;37732;53.106;7.030;2023-03-14T17:02:59;11.52;;;3.50;;
51654;SDS011;37732;53.106;7.030;2023-03-14T17:05:25;8.02;;;2.50;;
51654;SDS011;37732;53.106;7.030;2023-03-14T17:07:51;8.65;;;2.60;;
51654;SDS011;37732;53.106;7.030;2023-03-14T17:10:17;8.05;;;3.03;;
51654;SDS011;37732;53.106;7.030;2023-03-14T17:12:43;8.38;;;3.28;;
51654;SDS011;37732;53.106;7.030;2023-03-14T17:15:09;9.45;;;2.92;;
51654;SDS011;37732;53.106;7.030;2023-03-14T17:17:35;8.85;;;2.90;;
51654;SDS011;37732;53.106;7.030;2023-03-14T17:20:02;6.85;;;2.95;;
51654;SDS011;37732;53.106;7.030;2023-03-14T17:22:32;11.98;;;3.67;;
51654;SDS011;37732;53.106;7.030;2023-03-14T17:24:57;10.32;;;2.85;;
51654;SDS011;37732;53.106;7.030;2023-03-14T17:27:25;9.70;;;2.80;;
51654;SDS011;37732;53.106;7.030;2023-03-14T17:29:51;13.20;;;3.10;;
51654;SDS011;37732;53.106;7.030;2023-03-14T17:32:17;8.18;;;2.78;;
51654;SDS011;37732;53.106;7.030;2023-03-14T17:34:43;10.40;;;3.08;;
51654;SDS011;37732;53.106;7.030;2023-03-14T17:37:08;12.88;;;3.55;;
51654;SDS011;37732;53.106;7.030;2023-03-14T17:39:34;10.70;;;3.83;;
51654;SDS011;37732;53.106;7.030;2023-03-14T17:42:00;13.77;;;3.75;;
51654;SDS011;37732;53.106;7.030;2023-03-14T17:44:26;11.50;;;3.58;;
51654;SDS011;37732;53.106;7.030;2023-03-14T17:46:52;9.63;;;3.65;;
51654;SDS011;37732;53.106;7.030;2023-03-14T17:49:18;10.73;;;3.75;;
51654;SDS011;37732;53.106;7.030;2023-03-14T17:51:43;12.75;;;3.38;;
51654;SDS011;37732;53.106;7.030;2023-03-14T17:54:09;8.38;;;3.30;;
51654;SDS011;37732;53.106;7.030;2023-03-14T17:56:34;12.00;;;3.47;;
51654;SDS011;37732;53.106;7.030;2023-03-14T17:59:00;8.10;;;1.92;;